sensor_id;sensor_type;location;lat;lon;timestamp;pressure;altitude;pressure_sealevel;temperature;humidity
41312;BME280;27061;41.648;24.568;2023-09-12T00:02:15;86213.28;;;12.57;50.71
41312;BME280;27061;41.648;24.568;2023-09-12T00:04:42;86174.72;;;12.34;50.62
41312;BME280;27061;41.648;24.568;2023-09-12T00:07:09;86166.53;;;12.24;50.25
41312;BME280;27061;41.648;24.568;2023-09-12T00:09:37;86185.75;;;12.40;50.23
41312;BME280;27061;41.648;24.568;2023-09-12T00:12:04;86209.47;;;12.31;51.62
41312;BME280;27061;41.648;24.568;2023-09-12T00:14:31;86210.84;;;12.32;51.47
41312;BME280;27061;41.648;24.568;2023-09-12T00:16:58;86213.00;;;12.28;51.71
41312;BME280;27061;41.648;24.568;2023-09-12T00:19:25;86166.84;;;12.00;51.71
41312;BME280;27061;41.648;24.568;2023-09-12T00:21:53;86131.59;;;11.92;50.81
41312;BME280;27061;41.648;24.568;2023-09-12T00:24:20;86163.91;;;12.14;50.58
41312;BME280;27061;41.648;24.568;2023-09-12T00:26:47;86194.16;;;12.34;50.69
41312;BME280;27061;41.648;24.568;2023-09-12T00:29:14;86202.25;;;12.51;50.96
41312;BME280;27061;41.648;24.568;2023-09-12T00:31:41;86183.09;;;12.30;50.66
41312;BME280;27061;41.648;24.568;2023-09-12T00:34:09;86192.72;;;12.39;50.44
41312;BME280;27061;41.648;24.568;2023-09-12T00:36:36;86133.56;;;11.98;50.22
41312;BME280;27061;41.648;24.568;2023-09-12T00:39:04;86200.97;;;12.43;50.55
41312;BME280;27061;41.648;24.568;2023-09-12T00:41:32;86201.53;;;12.54;50.20
41312;BME280;27061;41.648;24.568;2023-09-12T00:43:59;86147.22;;;12.18;49.55
41312;BME280;27061;41.648;24.568;2023-09-12T00:46:27;86205.63;;;12.59;49.62
41312;BME280;27061;41.648;24.568;2023-09-12T00:48:57;86195.16;;;12.62;49.60
41312;BME280;27061;41.648;24.568;2023-09-12T00:51:27;86152.69;;;12.22;49.31
41312;BME280;27061;41.648;24.568;2023-09-12T00:53:55;86111.47;;;11.92;49.45
41312;BME280;27061;41.648;24.568;2023-09-12T00:56:23;86147.16;;;12.20;49.28
41312;BME280;27061;41.648;24.568;2023-09-12T00:58:50;86178.28;;;12.29;49.66
41312;BME280;27061;41.648;24.568;2023-09-12T01:01:19;86207.75;;;12.55;49.18
41312;BME280;27061;41.648;24.568;2023-09-12T01:03:48;86143.84;;;12.09;49.01
41312;BME280;27061;41.648;24.568;2023-09-12T01:06:19;86191.25;;;12.42;49.16
41312;BME280;27061;41.648;24.568;2023-09-12T01:08:49;86164.41;;;12.29;49.39
41312;BME280;27061;41.648;24.568;2023-09-12T01:11:16;86178.00;;;12.49;49.10
41312;BME280;27061;41.648;24.568;2023-09-12T01:13:44;86119.09;;;11.93;49.62
41312;BME280;27061;41.648;24.568;2023-09-12T01:16:11;86185.88;;;12.30;49.31
41312;BME280;27061;41.648;24.568;2023-09-12T01:18:39;86205.69;;;12.53;49.36
41312;BME280;27061;41.648;24.568;2023-09-12T01:26:30;86209.47;;;12.31;51.57
41312;BME280;27061;41.648;24.568;2023-09-12T01:29:07;86187.91;;;11.79;52.58
41312;BME280;27061;41.648;24.568;2023-09-12T01:31:37;86020.69;;;10.76;51.80
41312;BME280;27061;41.648;24.568;2023-09-12T01:34:10;86146.41;;;11.68;51.96
41312;BME280;27061;41.648;24.568;2023-09-12T01:36:38;86195.19;;;12.08;51.83
41312;BME280;27061;41.648;24.568;2023-09-12T01:39:06;86182.00;;;12.09;50.80
41312;BME280;27061;41.648;24.568;2023-09-12T01:41:35;86162.78;;;11.93;50.24
41312;BME280;27061;41.648;24.568;2023-09-12T01:44:08;86168.38;;;11.89;51.23
41312;BME280;27061;41.648;24.568;2023-09-12T01:46:37;86166.84;;;12.00;51.22
41312;BME280;27061;41.648;24.568;2023-09-12T01:49:05;86208.13;;;12.28;51.96
41312;BME280;27061;41.648;24.568;2023-09-12T01:51:34;86134.09;;;11.55;53.17
41312;BME280;27061;41.648;24.568;2023-09-12T01:54:03;86205.53;;;12.14;53.09
41312;BME280;27061;41.648;24.568;2023-09-12T01:56:31;86206.19;;;12.17;52.75
41312;BME280;27061;41.648;24.568;2023-09-12T01:58:58;86148.47;;;11.70;52.72
41312;BME280;27061;41.648;24.568;2023-09-12T02:01:26;86138.09;;;11.66;52.81
41312;BME280;27061;41.648;24.568;2023-09-12T02:03:54;86149.16;;;11.72;52.78
41312;BME280;27061;41.648;24.568;2023-09-12T02:06:21;86208.44;;;12.04;53.79
41312;BME280;27061;41.648;24.568;2023-09-12T02:08:49;86218.06;;;12.09;53.88
41312;BME280;27061;41.648;24.568;2023-09-12T02:11:16;86160.34;;;11.62;54.31
41312;BME280;27061;41.648;24.568;2023-09-12T02:13:43;86207.75;;;12.01;53.94
41312;BME280;27061;41.648;24.568;2023-09-12T02:16:10;86147.94;;;11.57;53.61
41312;BME280;27061;41.648;24.568;2023-09-12T02:18:37;86216.69;;;12.08;53.81
41312;BME280;27061;41.648;24.568;2023-09-12T02:21:05;86166.03;;;11.50;55.11
41312;BME280;27061;41.648;24.568;2023-09-12T02:23:32;86218.91;;;11.97;54.86
41312;BME280;27061;41.648;24.568;2023-09-12T02:25:59;86218.25;;;11.97;54.65
41312;BME280;27061;41.648;24.568;2023-09-12T02:28:27;86153.38;;;11.65;54.75
41312;BME280;27061;41.648;24.568;2023-09-12T02:30:54;86134.03;;;11.59;54.46
41312;BME280;27061;41.648;24.568;2023-09-12T02:33:22;86211.06;;;12.16;54.50
41312;BME280;27061;41.648;24.568;2023-09-12T02:35:49;86145.22;;;11.53;54.77
41312;BME280;27061;41.648;24.568;2023-09-12T02:38:18;86169.28;;;11.69;54.69
41312;BME280;27061;41.648;24.568;2023-09-12T02:40:45;86216.69;;;12.08;54.71
41312;BME280;27061;41.648;24.568;2023-09-12T02:43:12;86218.97;;;11.93;55.44
41312;BME280;27061;41.648;24.568;2023-09-12T02:45:39;86216.63;;;12.16;54.74
41312;BME280;27061;41.648;24.568;2023-09-12T02:48:07;86132.19;;;11.42;55.25
41312;BME280;27061;41.648;24.568;2023-09-12T02:50:34;86216.91;;;11.92;55.30
41312;BME280;27061;41.648;24.568;2023-09-12T02:53:01;86183.16;;;11.69;55.74
41312;BME280;27061;41.648;24.568;2023-09-12T02:55:28;86217.09;;;11.76;57.41
41312;BME280;27061;41.648;24.568;2023-09-12T02:57:55;86162.22;;;11.19;57.79
41312;BME280;27061;41.648;24.568;2023-09-12T03:00:25;86221.31;;;11.66;57.51
41312;BME280;27061;41.648;24.568;2023-09-12T03:02:52;86186.88;;;11.45;57.58
41312;BME280;27061;41.648;24.568;2023-09-12T03:05:19;86214.38;;;11.65;57.92
41312;BME280;27061;41.648;24.568;2023-09-12T03:07:49;86198.53;;;11.56;57.19
41312;BME280;27061;41.648;24.568;2023-09-12T03:10:16;86153.78;;;11.31;57.44
41312;BME280;27061;41.648;24.568;2023-09-12T03:12:43;86210.25;;;11.64;57.20
41312;BME280;27061;41.648;24.568;2023-09-12T03:15:11;86195.88;;;11.48;57.96
41312;BME280;27061;41.648;24.568;2023-09-12T03:17:38;86169.72;;;11.28;57.24
41312;BME280;27061;41.648;24.568;2023-09-12T03:20:06;86220.56;;;11.72;57.16
41312;BME280;27061;41.648;24.568;2023-09-12T03:22:36;86225.41;;;11.76;57.32
41312;BME280;27061;41.648;24.568;2023-09-12T03:25:06;86162.09;;;11.31;58.11
41312;BME280;27061;41.648;24.568;2023-09-12T03:27:33;86136.69;;;11.08;58.77
41312;BME280;27061;41.648;24.568;2023-09-12T03:30:00;86224.00;;;11.77;58.69
41312;BME280;27061;41.648;24.568;2023-09-12T03:32:28;86182.16;;;11.33;59.78
41312;BME280;27061;41.648;24.568;2023-09-12T03:34:55;86167.66;;;11.27;59.27
41312;BME280;27061;41.648;24.568;2023-09-12T03:37:22;86160.75;;;11.26;58.63
41312;BME280;27061;41.648;24.568;2023-09-12T03:39:49;86206.25;;;11.47;59.38
41312;BME280;27061;41.648;24.568;2023-09-12T03:42:16;86224.06;;;11.66;59.34
41312;BME280;27061;41.648;24.568;2023-09-12T03:44:47;86215.84;;;11.60;58.93
41312;BME280;27061;41.648;24.568;2023-09-12T03:47:14;86183.44;;;11.43;58.53
41312;BME280;27061;41.648;24.568;2023-09-12T03:49:41;86220.69;;;11.62;59.18
41312;BME280;27061;41.648;24.568;2023-09-12T03:52:08;86177.28;;;11.34;58.36
41312;BME280;27061;41.648;24.568;2023-09-12T03:54:36;86206.81;;;11.60;58.58
41312;BME280;27061;41.648;24.568;2023-09-12T03:57:03;86217.31;;;11.51;58.73
41312;BME280;27061;41.648;24.568;2023-09-12T03:59:32;86167.78;;;11.17;58.75
41312;BME280;27061;41.648;24.568;2023-09-12T04:02:01;86244.84;;;11.71;58.82
41312;BME280;27061;41.648;24.568;2023-09-12T04:04:30;86196.63;;;11.40;58.69
41312;BME280;27061;41.648;24.568;2023-09-12T04:06:57;86185.59;;;11.36;58.44
41312;BME280;27061;41.648;24.568;2023-09-12T04:09:24;86231.78;;;11.60;58.82
41312;BME280;27061;41.648;24.568;2023-09-12T04:11:52;86217.25;;;11.55;58.67
41312;BME280;27061;41.648;24.568;2023-09-12T04:14:20;86224.16;;;11.60;58.81
41312;BME280;27061;41.648;24.568;2023-09-12T04:16:48;86206.25;;;11.49;58.34
41312;BME280;27061;41.648;24.568;2023-09-12T04:19:15;86213.06;;;11.58;59.06
41312;BME280;27061;41.648;24.568;2023-09-12T04:21:42;86230.97;;;11.71;58.58
41312;BME280;27061;41.648;24.568;2023-09-12T04:24:09;86231.00;;;11.69;58.83
41312;BME280;27061;41.648;24.568;2023-09-12T04:26:38;86246.22;;;11.72;59.21
41312;BME280;27061;41.648;24.568;2023-09-12T04:29:05;86218.59;;;11.60;59.02
41312;BME280;27061;41.648;24.568;2023-09-12T04:31:32;86261.31;;;11.88;59.30
41312;BME280;27061;41.648;24.568;2023-09-12T04:34:00;86244.09;;;11.79;59.27
41312;BME280;27061;41.648;24.568;2023-09-12T04:36:28;86235.09;;;11.77;59.25
41312;BME280;27061;41.648;24.568;2023-09-12T04:38:55;86236.44;;;11.82;59.50
41312;BME280;27061;41.648;24.568;2023-09-12T04:41:23;86257.13;;;11.93;59.71
41312;BME280;27061;41.648;24.568;2023-09-12T04:43:50;86225.41;;;11.73;60.08
41312;BME280;27061;41.648;24.568;2023-09-12T04:46:17;86215.81;;;11.62;60.22
41312;BME280;27061;41.648;24.568;2023-09-12T04:48:45;86192.34;;;11.53;60.58
41312;BME280;27061;41.648;24.568;2023-09-12T04:51:13;85987.47;;;10.02;61.21
41312;BME280;27061;41.648;24.568;2023-09-12T04:53:40;86161.34;;;11.34;62.42
41312;BME280;27061;41.648;24.568;2023-09-12T04:56:07;86185.44;;;11.50;63.17
41312;BME280;27061;41.648;24.568;2023-09-12T04:58:37;86257.56;;;12.14;63.06
41312;BME280;27061;41.648;24.568;2023-09-12T05:01:04;86262.41;;;12.17;63.61
41312;BME280;27061;41.648;24.568;2023-09-12T05:03:32;86206.53;;;11.88;63.75
41312;BME280;27061;41.648;24.568;2023-09-12T05:06:00;86088.97;;;11.02;63.69
41312;BME280;27061;41.648;24.568;2023-09-12T05:08:28;86201.03;;;11.84;64.02
41312;BME280;27061;41.648;24.568;2023-09-12T05:10:56;86178.09;;;11.88;64.62
41312;BME280;27061;41.648;24.568;2023-09-12T05:13:23;86252.19;;;12.55;65.21
41312;BME280;27061;41.648;24.568;2023-09-12T05:15:53;86259.72;;;12.64;63.72
41312;BME280;27061;41.648;24.568;2023-09-12T05:18:21;86122.97;;;11.57;63.50
41312;BME280;27061;41.648;24.568;2023-09-12T05:20:48;86216.28;;;12.40;63.77
41312;BME280;27061;41.648;24.568;2023-09-12T05:23:16;86243.69;;;12.69;63.14
41312;BME280;27061;41.648;24.568;2023-09-12T05:25:43;86264.13;;;12.96;62.96
41312;BME280;27061;41.648;24.568;2023-09-12T05:28:11;86245.34;;;12.99;63.82
41312;BME280;27061;41.648;24.568;2023-09-12T05:30:38;86258.22;;;13.21;63.51
41312;BME280;27061;41.648;24.568;2023-09-12T05:33:05;86245.00;;;13.23;63.47
41312;BME280;27061;41.648;24.568;2023-09-12T05:35:33;86241.41;;;13.29;63.39
41312;BME280;27061;41.648;24.568;2023-09-12T05:38:00;86259.81;;;13.52;63.89
41312;BME280;27061;41.648;24.568;2023-09-12T05:40:27;86188.91;;;13.08;63.67
41312;BME280;27061;41.648;24.568;2023-09-12T05:42:55;86262.84;;;13.77;62.85
41312;BME280;27061;41.648;24.568;2023-09-12T05:45:29;86250.28;;;13.80;63.44
41312;BME280;27061;41.648;24.568;2023-09-12T05:48:00;86250.00;;;13.97;63.67
41312;BME280;27061;41.648;24.568;2023-09-12T05:50:28;86249.84;;;14.05;62.81
41312;BME280;27061;41.648;24.568;2023-09-12T05:52:55;86264.06;;;14.25;62.18
41312;BME280;27061;41.648;24.568;2023-09-12T05:55:23;86180.69;;;13.82;61.89
41312;BME280;27061;41.648;24.568;2023-09-12T05:57:51;86246.34;;;14.43;61.82
41312;BME280;27061;41.648;24.568;2023-09-12T06:00:20;86257.72;;;14.66;61.54
41312;BME280;27061;41.648;24.568;2023-09-12T06:02:48;86263.72;;;14.79;61.67
41312;BME280;27061;41.648;24.568;2023-09-12T06:05:16;86260.22;;;14.80;61.24
41312;BME280;27061;41.648;24.568;2023-09-12T06:07:43;86249.53;;;14.91;60.66
41312;BME280;27061;41.648;24.568;2023-09-12T06:10:10;86221.19;;;14.80;60.77
41312;BME280;27061;41.648;24.568;2023-09-12T06:12:38;86206.56;;;14.80;59.23
41312;BME280;27061;41.648;24.568;2023-09-12T06:15:05;86276.25;;;15.44;57.59
41312;BME280;27061;41.648;24.568;2023-09-12T06:17:33;86214.25;;;15.10;58.95
41312;BME280;27061;41.648;24.568;2023-09-12T06:20:00;86278.41;;;15.72;56.62
41312;BME280;27061;41.648;24.568;2023-09-12T06:22:27;86230.09;;;15.49;55.79
41312;BME280;27061;41.648;24.568;2023-09-12T06:24:57;86284.72;;;15.99;54.75
41312;BME280;27061;41.648;24.568;2023-09-12T06:27:25;86259.69;;;15.95;54.01
41312;BME280;27061;41.648;24.568;2023-09-12T06:29:52;86273.22;;;16.11;53.12
41312;BME280;27061;41.648;24.568;2023-09-12T06:32:19;86287.91;;;16.39;50.83
41312;BME280;27061;41.648;24.568;2023-09-12T06:34:47;86266.34;;;16.35;51.71
41312;BME280;27061;41.648;24.568;2023-09-12T06:37:14;86253.00;;;16.38;53.28
41312;BME280;27061;41.648;24.568;2023-09-12T06:39:42;86258.38;;;16.46;52.48
41312;BME280;27061;41.648;24.568;2023-09-12T06:42:09;86202.44;;;16.21;51.37
41312;BME280;27061;41.648;24.568;2023-09-12T06:44:37;86295.84;;;17.07;52.99
41312;BME280;27061;41.648;24.568;2023-09-12T06:47:05;86233.91;;;16.73;52.67
41312;BME280;27061;41.648;24.568;2023-09-12T06:49:32;86169.28;;;16.34;50.67
41312;BME280;27061;41.648;24.568;2023-09-12T06:52:01;86230.69;;;16.88;50.12
41312;BME280;27061;41.648;24.568;2023-09-12T06:54:29;86267.97;;;17.28;50.67
41312;BME280;27061;41.648;24.568;2023-09-12T06:56:56;86278.34;;;17.56;48.90
41312;BME280;27061;41.648;24.568;2023-09-12T06:59:24;86298.50;;;17.83;48.50
41312;BME280;27061;41.648;24.568;2023-09-12T07:01:51;86297.44;;;17.95;47.33
41312;BME280;27061;41.648;24.568;2023-09-12T07:04:18;86244.00;;;17.80;45.33
41312;BME280;27061;41.648;24.568;2023-09-12T07:06:45;86297.97;;;18.22;44.37
41312;BME280;27061;41.648;24.568;2023-09-12T07:09:12;86299.00;;;18.34;44.72
41312;BME280;27061;41.648;24.568;2023-09-12T07:11:41;86278.16;;;18.28;44.58
41312;BME280;27061;41.648;24.568;2023-09-12T07:14:09;86294.03;;;18.57;43.84
41312;BME280;27061;41.648;24.568;2023-09-12T07:16:37;86294.91;;;18.74;43.78
41312;BME280;27061;41.648;24.568;2023-09-12T07:19:04;86283.53;;;18.78;44.18
41312;BME280;27061;41.648;24.568;2023-09-12T07:21:32;86302.44;;;18.98;40.84
41312;BME280;27061;41.648;24.568;2023-09-12T07:23:59;86287.16;;;18.95;43.06
41312;BME280;27061;41.648;24.568;2023-09-12T07:26:27;86267.59;;;18.73;38.20
41312;BME280;27061;41.648;24.568;2023-09-12T07:28:54;86282.09;;;18.79;38.72
41312;BME280;27061;41.648;24.568;2023-09-12T07:31:22;86290.88;;;19.09;39.09
41312;BME280;27061;41.648;24.568;2023-09-12T07:33:49;86297.34;;;19.24;41.33
41312;BME280;27061;41.648;24.568;2023-09-12T07:36:16;86298.97;;;19.37;44.22
41312;BME280;27061;41.648;24.568;2023-09-12T07:38:44;86304.06;;;19.52;36.68
41312;BME280;27061;41.648;24.568;2023-09-12T07:41:12;86266.41;;;19.26;37.69
41312;BME280;27061;41.648;24.568;2023-09-12T07:43:39;86304.44;;;19.60;40.73
41312;BME280;27061;41.648;24.568;2023-09-12T07:46:07;86303.41;;;19.70;41.95
41312;BME280;27061;41.648;24.568;2023-09-12T07:48:35;86265.38;;;19.54;40.79
41312;BME280;27061;41.648;24.568;2023-09-12T07:51:11;86289.56;;;19.83;40.60
41312;BME280;27061;41.648;24.568;2023-09-12T07:53:38;86260.34;;;19.76;42.29
41312;BME280;27061;41.648;24.568;2023-09-12T07:56:08;86252.38;;;19.82;41.30
41312;BME280;27061;41.648;24.568;2023-09-12T07:58:37;86307.81;;;20.38;39.77
41312;BME280;27061;41.648;24.568;2023-09-12T08:01:05;86288.16;;;20.38;40.16
41312;BME280;27061;41.648;24.568;2023-09-12T08:03:34;86302.25;;;20.55;36.09
41312;BME280;27061;41.648;24.568;2023-09-12T08:06:03;86273.00;;;20.48;40.08
41312;BME280;27061;41.648;24.568;2023-09-12T08:08:30;86308.50;;;20.74;34.81
41312;BME280;27061;41.648;24.568;2023-09-12T08:10:57;86296.88;;;20.82;36.39
41312;BME280;27061;41.648;24.568;2023-09-12T08:13:28;86306.00;;;20.99;38.33
41312;BME280;27061;41.648;24.568;2023-09-12T08:15:56;86287.69;;;21.00;37.55
41312;BME280;27061;41.648;24.568;2023-09-12T08:18:28;86260.56;;;20.93;38.17
41312;BME280;27061;41.648;24.568;2023-09-12T08:20:56;86267.53;;;21.10;34.07
41312;BME280;27061;41.648;24.568;2023-09-12T08:23:23;86284.84;;;21.34;34.55
41312;BME280;27061;41.648;24.568;2023-09-12T08:25:50;86295.06;;;21.58;37.30
41312;BME280;27061;41.648;24.568;2023-09-12T08:28:17;86267.84;;;21.52;37.46
41312;BME280;27061;41.648;24.568;2023-09-12T08:30:45;86296.59;;;21.86;37.35
41312;BME280;27061;41.648;24.568;2023-09-12T08:33:13;86297.25;;;22.04;37.83
41312;BME280;27061;41.648;24.568;2023-09-12T08:35:40;86272.84;;;21.98;37.77
41312;BME280;27061;41.648;24.568;2023-09-12T08:38:07;86285.41;;;22.16;36.67
41312;BME280;27061;41.648;24.568;2023-09-12T08:40:35;86242.03;;;22.09;37.68
41312;BME280;27061;41.648;24.568;2023-09-12T08:43:03;86267.16;;;22.44;36.43
41312;BME280;27061;41.648;24.568;2023-09-12T08:45:35;86276.28;;;22.59;37.50
41312;BME280;27061;41.648;24.568;2023-09-12T08:48:03;86291.78;;;22.90;36.66
41312;BME280;27061;41.648;24.568;2023-09-12T08:50:31;86297.50;;;23.03;36.88
41312;BME280;27061;41.648;24.568;2023-09-12T08:53:00;86293.31;;;23.16;36.62
41312;BME280;27061;41.648;24.568;2023-09-12T08:55:34;86292.97;;;23.22;34.43
41312;BME280;27061;41.648;24.568;2023-09-12T08:58:04;86292.94;;;23.52;29.66
41312;BME280;27061;41.648;24.568;2023-09-12T09:00:33;86263.00;;;23.29;29.85
41312;BME280;27061;41.648;24.568;2023-09-12T09:03:01;86289.38;;;23.66;33.63
41312;BME280;27061;41.648;24.568;2023-09-12T09:05:30;86259.22;;;23.48;34.78
41312;BME280;27061;41.648;24.568;2023-09-12T09:08:00;86258.38;;;23.64;35.04
41312;BME280;27061;41.648;24.568;2023-09-12T09:10:30;86292.34;;;24.04;35.07
41312;BME280;27061;41.648;24.568;2023-09-12T09:13:17;86292.47;;;24.15;32.78
41312;BME280;27061;41.648;24.568;2023-09-12T09:15:44;86262.13;;;24.00;33.04
41312;BME280;27061;41.648;24.568;2023-09-12T09:18:12;86298.97;;;24.26;33.76
41312;BME280;27061;41.648;24.568;2023-09-12T09:20:40;86269.78;;;24.29;33.03
41312;BME280;27061;41.648;24.568;2023-09-12T09:23:09;86286.44;;;24.48;34.17
41312;BME280;27061;41.648;24.568;2023-09-12T09:25:42;86248.84;;;24.37;28.84
41312;BME280;27061;41.648;24.568;2023-09-12T09:28:17;86291.09;;;24.66;29.84
41312;BME280;27061;41.648;24.568;2023-09-12T09:30:46;86292.13;;;24.73;29.69
41312;BME280;27061;41.648;24.568;2023-09-12T09:33:14;86294.72;;;24.77;32.13
41312;BME280;27061;41.648;24.568;2023-09-12T09:35:42;86297.31;;;24.81;30.30
41312;BME280;27061;41.648;24.568;2023-09-12T09:38:09;86260.97;;;24.61;31.67
41312;BME280;27061;41.648;24.568;2023-09-12T09:40:37;86266.88;;;24.44;29.41
41312;BME280;27061;41.648;24.568;2023-09-12T09:43:04;86281.94;;;24.66;32.66
41312;BME280;27061;41.648;24.568;2023-09-12T09:45:31;86266.75;;;24.59;32.64
41312;BME280;27061;41.648;24.568;2023-09-12T09:48:06;86281.94;;;24.78;32.89
41312;BME280;27061;41.648;24.568;2023-09-12T09:50:36;86290.78;;;24.98;31.17
41312;BME280;27061;41.648;24.568;2023-09-12T09:53:06;86242.97;;;24.79;32.38
41312;BME280;27061;41.648;24.568;2023-09-12T09:55:35;86270.84;;;25.00;31.94
41312;BME280;27061;41.648;24.568;2023-09-12T09:58:05;86281.94;;;25.04;29.99
41312;BME280;27061;41.648;24.568;2023-09-12T10:00:37;86247.19;;;24.67;30.30
41312;BME280;27061;41.648;24.568;2023-09-12T10:03:05;86243.09;;;24.77;31.79
41312;BME280;27061;41.648;24.568;2023-09-12T10:05:37;86236.19;;;24.87;32.03
41312;BME280;27061;41.648;24.568;2023-09-12T10:08:07;86276.84;;;24.94;30.18
41312;BME280;27061;41.648;24.568;2023-09-12T10:10:38;86275.81;;;25.12;29.53
41312;BME280;27061;41.648;24.568;2023-09-12T10:13:06;86226.44;;;24.84;29.67
41312;BME280;27061;41.648;24.568;2023-09-12T10:15:36;86265.13;;;25.25;30.07
41312;BME280;27061;41.648;24.568;2023-09-12T10:18:09;86266.72;;;25.22;29.26
41312;BME280;27061;41.648;24.568;2023-09-12T10:20:48;86278.03;;;25.35;30.23
41312;BME280;27061;41.648;24.568;2023-09-12T10:23:19;86280.47;;;25.53;32.32
41312;BME280;27061;41.648;24.568;2023-09-12T10:25:49;86269.56;;;25.71;31.50
41312;BME280;27061;41.648;24.568;2023-09-12T10:28:17;86274.53;;;25.83;31.71
41312;BME280;27061;41.648;24.568;2023-09-12T10:30:45;86274.47;;;25.96;31.37
41312;BME280;27061;41.648;24.568;2023-09-12T10:33:14;86236.19;;;25.84;28.82
41312;BME280;27061;41.648;24.568;2023-09-12T10:35:44;86237.28;;;25.89;31.44
41312;BME280;27061;41.648;24.568;2023-09-12T10:38:13;86268.44;;;26.25;31.48
41312;BME280;27061;41.648;24.568;2023-09-12T10:40:43;86257.94;;;26.34;31.11
41312;BME280;27061;41.648;24.568;2023-09-12T10:43:12;86221.66;;;26.24;29.77
41312;BME280;27061;41.648;24.568;2023-09-12T10:45:41;86222.41;;;26.35;29.75
41312;BME280;27061;41.648;24.568;2023-09-12T10:48:10;86242.25;;;26.58;28.58
41312;BME280;27061;41.648;24.568;2023-09-12T10:50:39;86258.50;;;26.71;29.92
41312;BME280;27061;41.648;24.568;2023-09-12T10:53:16;86230.22;;;26.58;29.91
41312;BME280;27061;41.648;24.568;2023-09-12T10:55:58;86254.59;;;26.76;28.48
41312;BME280;27061;41.648;24.568;2023-09-12T11:15:27;86164.06;;;26.15;27.90
41312;BME280;27061;41.648;24.568;2023-09-12T11:18:04;86255.44;;;26.85;26.29
41312;BME280;27061;41.648;24.568;2023-09-12T11:20:51;86252.78;;;26.94;27.91
41312;BME280;27061;41.648;24.568;2023-09-12T11:23:32;86239.50;;;26.90;31.24
41312;BME280;27061;41.648;24.568;2023-09-12T11:26:05;86251.06;;;27.10;32.80
41312;BME280;27061;41.648;24.568;2023-09-12T11:28:34;86241.59;;;27.24;33.02
41312;BME280;27061;41.648;24.568;2023-09-12T11:31:08;86237.41;;;27.23;32.58
41312;BME280;27061;41.648;24.568;2023-09-12T11:33:40;86228.63;;;27.27;32.20
41312;BME280;27061;41.648;24.568;2023-09-12T11:36:13;86223.19;;;27.33;31.38
41312;BME280;27061;41.648;24.568;2023-09-12T11:38:49;86237.31;;;27.67;32.79
41312;BME280;27061;41.648;24.568;2023-09-12T11:41:44;86233.09;;;27.77;28.73
41312;BME280;27061;41.648;24.568;2023-09-12T11:44:13;86203.75;;;27.59;30.38
41312;BME280;27061;41.648;24.568;2023-09-12T11:46:49;86227.16;;;27.92;30.17
41312;BME280;27061;41.648;24.568;2023-09-12T11:49:20;86231.59;;;28.10;27.77
41312;BME280;27061;41.648;24.568;2023-09-12T11:51:58;86215.19;;;28.11;27.91
41312;BME280;27061;41.648;24.568;2023-09-12T11:54:25;86229.53;;;28.30;27.27
41312;BME280;27061;41.648;24.568;2023-09-12T11:56:57;86231.00;;;28.39;26.34
41312;BME280;27061;41.648;24.568;2023-09-12T11:59:26;86214.47;;;28.31;29.69
41312;BME280;27061;41.648;24.568;2023-09-12T12:02:10;86231.00;;;28.39;30.00
41312;BME280;27061;41.648;24.568;2023-09-12T12:04:38;86187.41;;;28.11;30.92
41312;BME280;27061;41.648;24.568;2023-09-12T12:07:06;86202.03;;;28.26;31.74
41312;BME280;27061;41.648;24.568;2023-09-12T12:09:42;86145.41;;;28.01;30.35
41312;BME280;27061;41.648;24.568;2023-09-12T12:12:13;86187.66;;;28.28;32.28
41312;BME280;27061;41.648;24.568;2023-09-12T12:14:41;86219.53;;;28.61;31.53
41312;BME280;27061;41.648;24.568;2023-09-12T12:17:10;86222.81;;;28.55;29.72
41312;BME280;27061;41.648;24.568;2023-09-12T12:19:38;86196.59;;;28.33;30.14
41312;BME280;27061;41.648;24.568;2023-09-12T12:22:06;86211.69;;;28.51;31.46
41312;BME280;27061;41.648;24.568;2023-09-12T12:24:39;86219.19;;;28.75;32.75
41312;BME280;27061;41.648;24.568;2023-09-12T12:27:07;86223.81;;;28.81;31.07
41312;BME280;27061;41.648;24.568;2023-09-12T12:29:37;86182.50;;;28.61;30.52
41312;BME280;27061;41.648;24.568;2023-09-12T12:32:06;86192.06;;;28.76;29.98
41312;BME280;27061;41.648;24.568;2023-09-12T12:34:37;86221.38;;;28.75;29.79
41312;BME280;27061;41.648;24.568;2023-09-12T12:37:29;86210.78;;;28.84;30.71
41312;BME280;27061;41.648;24.568;2023-09-12T12:39:58;86195.56;;;28.58;30.48
41312;BME280;27061;41.648;24.568;2023-09-12T12:42:33;86229.28;;;28.64;30.70
41312;BME280;27061;41.648;24.568;2023-09-12T12:45:17;86207.94;;;28.73;31.57
41312;BME280;27061;41.648;24.568;2023-09-12T12:47:45;86194.53;;;28.72;31.84
41312;BME280;27061;41.648;24.568;2023-09-12T12:50:16;86209.81;;;28.88;31.71
41312;BME280;27061;41.648;24.568;2023-09-12T12:52:48;86196.97;;;28.78;31.48
41312;BME280;27061;41.648;24.568;2023-09-12T12:55:16;86218.94;;;29.09;31.04
41312;BME280;27061;41.648;24.568;2023-09-12T12:57:48;86223.72;;;29.02;31.08
41312;BME280;27061;41.648;24.568;2023-09-12T13:00:16;86215.53;;;29.07;30.74
41312;BME280;27061;41.648;24.568;2023-09-12T13:02:44;86230.63;;;29.05;30.66
41312;BME280;27061;41.648;24.568;2023-09-12T13:05:38;86233.44;;;28.86;30.20
41312;BME280;27061;41.648;24.568;2023-09-12T13:08:07;86203.47;;;28.76;30.00
41312;BME280;27061;41.648;24.568;2023-09-12T13:10:35;86175.44;;;28.70;31.07
41312;BME280;27061;41.648;24.568;2023-09-12T13:13:03;86223.13;;;29.10;31.61
41312;BME280;27061;41.648;24.568;2023-09-12T13:15:31;86230.03;;;29.13;31.63
41312;BME280;27061;41.648;24.568;2023-09-12T13:17:58;86228.25;;;29.19;31.89
41312;BME280;27061;41.648;24.568;2023-09-12T13:20:25;86229.56;;;29.00;30.64
41312;BME280;27061;41.648;24.568;2023-09-12T13:22:52;86216.56;;;28.93;29.77